Latest Coastal Weather Observations for Newcastle Nobbys

IDN60701

Issued at 4:21 pm EST Friday 28 April 2017 (issued every 10 minutes, with the page automatically refreshed every 10 minutes)

About coastal observations | Map of coastal stations | Coastal observations for NSW | Marine services | Other Formats
Station Details ID: 061055 Name: NEWCASTLE NOBBYS SIGNAL STATION AWS Lat: -32.92 Lon: 151.80 Height: 33.0 m
Data from the previous 72 hours. | See also: Recent months at Newcastle Nobbys
Date/Time
EST
Temp
°C
Wind Pressure Rain since
9am
mm
Weather Cloud Vis
km
Sea
Height
m
Swell
Dir  Spd
kts
Gust
kts
hPa Trend Height
m
Period
s
Dir
28/04:00pm 18.2 S 12 15 - - 0.0 - - - - - - -
28/03:30pm 18.3 SSW 11 16 - - 0.0 - - - - - - -
28/03:00pm 18.1 S 14 17 - - 0.0 - - - - - - -
28/02:30pm 17.9 S 14 17 - - 0.0 - - - - - - -
28/02:00pm 17.6 SSW 14 19 - - 0.0 - - - - - - -
28/01:30pm 18.1 SSW 14 19 - - 0.0 - - - - - - -
28/01:00pm 18.1 SSW 13 20 - - 0.0 - - - - - - -
28/12:30pm 17.6 SSW 13 19 - - 0.0 - - - - - - -
28/12:00pm 17.8 SSW 14 19 - - 0.0 - - - - - - -
28/11:30am 17.6 SSW 12 21 - - 0.0 - - - - - - -
28/11:00am 17.5 SSW 12 20 - - 0.0 - - - - - - -
28/10:30am 17.3 SSW 12 16 - - 0.0 - - - - - - -
28/10:00am 16.8 SW 10 14 - - 0.0 - - - - - - -
28/09:30am 16.4 SW 11 17 - - 0.0 - - - - - - -
28/09:00am 15.9 SW 9 16 - - 4.4 - - - - - - -
28/08:30am 15.4 SW 10 16 - - 4.4 - - - - - - -
28/08:00am 14.8 SW 11 19 - - 4.4 - - - - - - -
28/07:30am 14.2 SW 10 16 - - 4.4 - - - - - - -
28/07:00am 13.9 SW 10 16 - - 4.4 - - - - - - -
28/06:30am 14.2 SW 10 17 - - 4.4 - - - - - - -
28/06:00am 14.7 SW 12 21 - - 4.4 - - - - - - -
28/05:30am 14.4 SW 10 18 - - 4.4 - - - - - - -
28/05:00am 14.7 SW 11 18 - - 4.4 - - - - - - -
28/04:30am 14.9 SW 12 21 - - 4.4 - - - - - - -
28/04:00am 15.1 SW 12 18 - - 4.4 - - - - - - -
28/03:30am 15.0 SW 13 21 - - 4.4 - - - - - - -
28/03:00am 14.4 SW 14 23 - - 4.4 - - - - - - -
28/02:30am 14.7 SW 15 23 - - 4.4 - - - - - - -
28/02:00am 14.2 SW 12 22 - - 4.4 - - - - - - -
28/01:30am 15.0 SW 12 19 - - 4.4 - - - - - - -
28/01:00am 14.9 WSW 9 15 - - 4.2 - - - - - - -
28/12:30am 14.4 WSW 10 16 - - 4.2 - - - - - - -
28/12:00am 14.5 WSW 10 16 - - 4.2 Recent precip. - - - - - -
 
Date/Time
EST
Temp
°C
Wind Pressure Rain since
9am
mm
Weather Cloud Vis
km
Sea
Height
m
Swell
Dir  Spd
kts
Gust
kts
hPa Trend Height
m
Period
s
Dir
27/11:30pm 14.7 WSW 9 13 - - 4.0 - - - - - - -
27/11:00pm 14.9 WSW 9 15 - - 3.6 - - - - - - -
27/10:30pm 14.8 SW 11 18 - - 3.6 - - - - - - -
27/10:00pm 14.4 WSW 6 10 - - 1.8 - - - - - - -
27/09:30pm 14.7 WSW 8 13 - - 1.4 - - - - - - -
27/09:00pm 15.1 WSW 10 15 - - 1.0 Recent precip. - - - - - -
27/08:30pm 15.5 SW 11 17 - - 0.2 - - - - - - -
27/08:15pm 15.6 SW 11 21 - - 0.0 - - - - - - -
27/08:00pm 15.5 WSW 6 9 - - 0.0 - - - - - - -
27/07:30pm 16.0 W 9 11 - - 0.0 - - - - - - -
27/07:00pm 16.1 W 10 12 - - 0.0 - - - - - - -
27/06:30pm 16.4 WSW 7 11 - - 0.0 - - - - - - -
27/06:00pm 16.4 SW 7 11 - - 0.0 - - - - - - -
27/05:30pm 16.6 SW 9 13 - - 0.0 - - - - - - -
27/05:00pm 16.9 SW 8 12 - - 0.0 - - - - - - -
27/04:30pm 17.1 SW 9 15 - - 0.0 - - - - - - -
27/04:00pm 17.5 SW 10 15 - - 0.0 - - - - - - -
27/03:30pm 17.3 SSW 12 17 - - 0.0 - - - - - - -
27/03:00pm 17.3 SSW 11 17 - - 0.0 - - - - - - -
27/02:30pm 17.0 S 14 19 - - 0.0 - - - - - - -
27/02:00pm 17.0 S 13 18 - - 0.0 - - - - - - -
27/01:30pm 17.3 SSW 12 16 - - 0.0 - - - - - - -
27/01:00pm 16.8 SSW 10 15 - - 0.0 - - - - - - -
27/12:30pm 17.4 SW 7 11 - - 0.0 - - - - - - -
27/12:00pm 16.1 SW 8 13 - - 0.0 - - - - - - -
27/11:30am 17.1 SW 10 15 - - 0.0 - - - - - - -
27/11:00am 17.0 SW 11 17 - - 0.0 - - - - - - -
27/10:30am 17.1 WNW 8 14 - - 0.0 - - - - - - -
27/10:00am 14.4 WNW 8 11 - - 0.0 - - - - - - -
27/09:30am 13.7 NW 9 11 - - 0.0 - - - - - - -
27/09:00am 13.1 WNW 10 13 - - 0.6 - - - - - - -
27/08:30am 12.6 WNW 9 11 - - 0.6 - - - - - - -
27/08:00am 12.1 WNW 11 14 - - 0.6 - - - - - - -
27/07:30am 12.1 WNW 12 15 - - 0.6 - - - - - - -
27/07:00am 11.8 WNW 10 13 - - 0.6 - - - - - - -
27/06:30am 11.4 WNW 11 15 - - 0.6 - - - - - - -
27/06:00am 11.4 WNW 12 15 - - 0.6 - - - - - - -
27/05:30am 11.4 W 12 15 - - 0.6 - - - - - - -
27/05:00am 11.5 WNW 12 15 - - 0.6 - - - - - - -
27/04:30am 11.5 WNW 11 15 - - 0.6 - - - - - - -
27/04:00am 11.8 WNW 12 17 - - 0.6 - - - - - - -
27/03:30am 11.9 WNW 12 16 - - 0.6 - - - - - - -
27/03:00am 11.9 WNW 13 17 - - 0.6 - - - - - - -
27/02:30am 12.2 WNW 11 15 - - 0.6 - - - - - - -
27/02:00am 12.6 WNW 12 15 - - 0.6 - - - - - - -
27/01:30am 12.7 WNW 12 17 - - 0.6 - - - - - - -
27/01:00am 12.9 WNW 14 18 - - 0.6 - - - - - - -
27/12:30am 13.0 WNW 16 20 - - 0.6 - - - - - - -
27/12:00am 13.3 WNW 14 18 - - 0.6 - - - - - - -
 
Date/Time
EST
Temp
°C
Wind Pressure Rain since
9am
mm
Weather Cloud Vis
km
Sea
Height
m
Swell
Dir  Spd
kts
Gust
kts
hPa Trend Height
m
Period
s
Dir
26/11:30pm 13.2 WNW 12 16 - - 0.6 - - - - - - -
26/11:00pm 13.2 WNW 12 17 - - 0.6 - - - - - - -
26/10:30pm 13.1 WNW 13 16 - - 0.6 - - - - - - -
26/10:00pm 12.9 WNW 14 19 - - 0.6 - - - - - - -
26/09:30pm 13.1 WNW 16 22 - - 0.6 - - - - - - -
26/09:00pm 13.4 NW 16 21 - - 0.6 - - - - - - -
26/08:30pm 14.0 NW 13 19 - - 0.6 - - - - - - -
26/08:00pm 14.4 WNW 17 23 - - 0.6 - - - - - - -
26/07:30pm 14.6 WNW 20 25 - - 0.6 - - - - - - -
26/07:00pm 14.2 WNW 18 25 - - 0.6 - - - - - - -
26/06:30pm 13.9 NW 14 19 - - 0.6 - - - - - - -
26/06:00pm 14.1 NW 15 21 - - 0.6 - - - - - - -
26/05:30pm 14.6 WNW 11 15 - - 0.6 - - - - - - -
26/05:00pm 14.9 WNW 16 21 - - 0.6 - - - - - - -
26/04:31pm 16.6 WSW 15 25 - - 0.0 - - - - - - -
26/04:30pm 16.6 WSW 16 25 - - 0.0 - - - - - - -
26/04:19pm 17.0 WSW 22 37 - - 0.0 - - - - - - -
26/04:08pm 18.7 WSW 25 41 - - 0.0 - - - - - - -
26/04:06pm 18.9 WSW 23 41 - - 0.0 - - - - - - -
26/04:05pm 19.4 WSW 22 41 - - 0.0 - - - - - - -
26/04:00pm 21.4 W 21 31 - - 0.0 - - - - - - -
26/03:30pm 23.6 WNW 18 28 - - 0.0 - - - - - - -
26/03:10pm 23.8 NW 18 29 - - 0.0 - - - - - - -
26/03:00pm 23.5 WNW 18 25 - - 0.0 - - - - - - -
26/02:30pm 23.4 WNW 11 17 - - 0.0 - - - - - - -
26/02:00pm 24.7 WNW 15 22 - - 0.0 - - - - - - -
26/01:30pm 24.6 WNW 17 27 - - 0.0 - - - - - - -
26/01:00pm 24.1 WNW 18 27 - - 0.0 - - - - - - -
26/12:30pm 23.8 NW 18 27 - - 0.0 - - - - - - -
26/12:00pm 23.6 WNW 12 17 - - 0.0 - - - - - - -
26/11:30am 22.9 NW 15 19 - - 0.0 - - - - - - -
26/11:00am 22.4 NW 12 18 - - 0.0 - - - - - - -
26/10:30am 22.3 NW 13 18 - - 0.0 - - - - - - -
26/10:00am 21.3 WNW 13 18 - - 0.0 - - - - - - -
26/09:30am 20.8 NW 14 19 - - 0.0 - - - - - - -
26/09:00am 20.8 WNW 9 13 - - 6.6 - - - - - - -
26/08:30am 19.8 NW 10 13 - - 6.6 - - - - - - -
26/08:00am 19.0 NW 5 7 - - 6.6 - - - - - - -
26/07:30am 19.0 NW 6 8 - - 6.6 - - - - - - -
26/07:00am 18.6 NW 6 9 - - 6.6 - - - - - - -
26/06:30am 18.2 NW 8 10 - - 6.6 - - - - - - -
26/06:00am 18.3 NW 7 10 - - 6.6 - - - - - - -
26/05:30am 18.4 NW 9 12 - - 6.6 - - - - - - -
26/05:00am 18.6 NW 11 16 - - 6.6 - - - - - - -
26/04:30am 18.6 NW 10 13 - - 6.6 - - - - - - -
26/04:00am 18.8 NW 10 15 - - 6.6 - - - - - - -
26/03:30am 18.8 NW 10 13 - - 6.6 - - - - - - -
26/03:00am 18.7 WNW 9 12 - - 6.6 - - - - - - -
26/02:30am 18.6 NW 7 11 - - 6.6 - - - - - - -
26/02:00am 18.5 NW 4 6 - - 6.6 - - - - - - -
26/01:30am 18.8 NNE 5 9 - - 6.6 - - - - - - -
26/01:00am 18.6 N 4 7 - - 6.6 - - - - - - -
26/12:30am 18.4 N 2 3 - - 6.6 - - - - - - -
26/12:00am 18.6 NW 4 7 - - 6.6 Recent precip. - - - - - -
 
Date/Time
EST
Temp
°C
Wind Pressure Rain since
9am
mm
Weather Cloud Vis
km
Sea
Height
m
Swell
Dir  Spd
kts
Gust
kts
hPa Trend Height
m
Period
s
Dir
25/11:30pm 18.8 WNW 6 8 - - 6.4 - - - - - - -
25/11:00pm 18.8 NNW 6 8 - - 6.4 - - - - - - -
25/10:30pm 19.0 NNW 12 15 - - 6.4 - - - - - - -
25/10:00pm 19.2 N 9 10 - - 6.4 - - - - - - -
25/09:30pm 19.2 N 5 7 - - 6.4 - - - - - - -
25/09:00pm 19.2 N 7 9 - - 6.4 Recent precip. - - - - - -
25/08:30pm 19.3 N 10 13 - - 6.4 - - - - - - -
25/08:00pm 19.3 NNW 11 14 - - 5.8 - - - - - - -
25/07:30pm 19.4 NNW 10 12 - - 5.4 - - - - - - -
25/07:00pm 19.6 NNW 10 13 - - 5.4 - - - - - - -
25/06:30pm 19.4 NNW 9 11 - - 5.4 - - - - - - -
25/06:00pm 19.3 NNW 7 9 - - 5.4 Rain - - - - - -
25/05:30pm 19.4 NW 8 10 - - 5.0 - - - - - - -
25/05:00pm 19.6 W 14 24 - - 4.4 - - - - - - -
25/04:39pm 22.5 NW 7 31 - - 0.0 - - - - - - -
25/04:38pm 22.6 NW 5 20 - - 0.0 - - - - - - -
25/04:30pm 22.8 N 3 5 - - 0.0 - - - - - - -

Other Formats:

Comma delimited format used in spreadsheet applications
http://www.bom.gov.au/fwo/IDN60701/IDN60701.94774.axf

JavaScript Object Notation format (JSON) in row-major order
http://www.bom.gov.au/fwo/IDN60701/IDN60701.94774.json